createdAt,value
2023-03-01T00:01:19.375Z,-3273.60
2023-03-01T00:03:46.627Z,-3273.60
2023-03-01T00:06:13.922Z,-3273.60
2023-03-01T00:08:40.638Z,-3273.50
2023-03-01T00:11:11.223Z,-3273.40
2023-03-01T00:13:38.415Z,-3273.30
2023-03-01T00:16:07.597Z,-3273.30
2023-03-01T00:18:34.405Z,-3273.30
2023-03-01T00:21:01.156Z,-3273.30
2023-03-01T00:23:28.052Z,-3273.30
2023-03-01T00:25:55.099Z,-3273.30
2023-03-01T00:28:22.178Z,-3273.20
2023-03-01T00:30:49.171Z,-3273.20
2023-03-01T00:33:16.146Z,-3273.10
2023-03-01T00:35:43.026Z,-3273.10
2023-03-01T00:38:09.839Z,-3273.00
2023-03-01T00:40:37.525Z,-3273.00
2023-03-01T00:43:05.120Z,-3272.90
2023-03-01T00:45:32.273Z,-3273.00
2023-03-01T00:47:59.118Z,-3273.00
2023-03-01T00:50:25.884Z,-3273.00
2023-03-01T00:53:09.782Z,-3273.00
2023-03-01T00:55:57.620Z,-3273.20
2023-03-01T00:58:26.783Z,-3273.10
2023-03-01T01:00:53.616Z,-3273.10
2023-03-01T01:03:20.495Z,-3273.10
2023-03-01T01:05:47.199Z,-3273.10
2023-03-01T01:08:13.998Z,-3273.00
2023-03-01T01:10:40.757Z,-3273.00
2023-03-01T01:13:07.576Z,-3273.00
2023-03-01T01:15:35.844Z,-3273.00
2023-03-01T01:18:02.824Z,-3272.90
2023-03-01T01:20:29.932Z,-3272.90
2023-03-01T01:22:56.766Z,-3272.80
2023-03-01T01:25:25.891Z,-3272.80
2023-03-01T01:27:52.780Z,-3272.80
2023-03-01T01:30:19.653Z,-3272.80
2023-03-01T01:32:46.382Z,-3272.80
2023-03-01T01:35:13.139Z,-3272.80
2023-03-01T01:37:39.865Z,-3272.80
2023-03-01T01:40:07.220Z,-3272.80
2023-03-01T01:42:33.980Z,-3272.90
2023-03-01T01:45:33.721Z,-3272.80
2023-03-01T01:48:11.687Z,-3272.80
2023-03-01T01:50:41.502Z,-3272.80
2023-03-01T01:53:15.648Z,-3272.80
2023-03-01T01:55:46.177Z,-3272.70
2023-03-01T01:58:18.358Z,-3272.70
2023-03-01T02:00:45.369Z,-3272.70
2023-03-01T02:03:20.990Z,-3272.70
2023-03-01T02:05:55.744Z,-3272.60
2023-03-01T02:08:26.210Z,-3272.60
2023-03-01T02:10:53.667Z,-3272.50
2023-03-01T02:13:20.548Z,-3272.50
2023-03-01T02:15:47.426Z,-3272.50
2023-03-01T02:18:19.208Z,-3272.40
2023-03-01T02:21:16.007Z,-3272.30
2023-03-01T02:23:43.107Z,-3272.30
2023-03-01T02:26:35.831Z,-3272.30
2023-03-01T02:29:02.660Z,-3272.30
2023-03-01T02:31:45.721Z,-3272.40
2023-03-01T02:34:15.911Z,-3272.40
2023-03-01T02:36:45.938Z,-3272.40
2023-03-01T02:39:18.448Z,-3272.40
2023-03-01T02:41:52.376Z,-3272.30
2023-03-01T02:44:19.438Z,-3272.20
2023-03-01T02:46:50.731Z,-3272.20
2023-03-01T02:49:29.914Z,-3272.30
2023-03-01T02:52:15.275Z,-3272.30
2023-03-01T02:55:09.294Z,-3272.20
2023-03-01T02:57:39.558Z,-3272.10
2023-03-01T03:00:19.966Z,-3272.10
2023-03-01T03:02:49.939Z,-3272.10
2023-03-01T03:05:22.716Z,-3272.00
2023-03-01T03:07:50.448Z,-3272.10
2023-03-01T03:10:21.515Z,-3272.00
2023-03-01T03:12:53.377Z,-3272.00
2023-03-01T03:15:21.485Z,-3271.80
2023-03-01T03:17:48.523Z,-3271.70
2023-03-01T03:20:19.981Z,-3271.70
2023-03-01T03:22:51.620Z,-3271.70
2023-03-01T03:25:19.475Z,-3271.70
2023-03-01T03:27:48.510Z,-3271.90
2023-03-01T03:30:20.556Z,-3272.00
2023-03-01T03:32:54.300Z,-3271.90
2023-03-01T03:35:23.641Z,-3271.90
2023-03-01T03:38:07.320Z,-3271.90
2023-03-01T03:40:41.851Z,-3271.80
2023-03-01T03:43:12.032Z,-3271.80
2023-03-01T03:45:38.864Z,-3271.90
2023-03-01T03:48:08.795Z,-3271.90
2023-03-01T03:50:35.889Z,-3272.00
2023-03-01T03:53:04.925Z,-3272.00
2023-03-01T03:55:32.004Z,-3272.00
2023-03-01T03:58:02.899Z,-3272.00
2023-03-01T04:00:29.846Z,-3272.00
2023-03-01T04:02:57.382Z,-3271.90
2023-03-01T04:05:24.691Z,-3271.90
2023-03-01T04:08:01.838Z,-3271.90
2023-03-01T04:10:35.091Z,-3271.70
2023-03-01T04:13:01.800Z,-3271.70
2023-03-01T04:15:29.207Z,-3271.70
2023-03-01T04:17:56.878Z,-3271.70
2023-03-01T04:20:27.062Z,-3271.60
2023-03-01T04:22:58.347Z,-3271.70
2023-03-01T04:25:25.387Z,-3271.60
2023-03-01T04:27:52.133Z,-3271.60
2023-03-01T04:30:18.853Z,-3271.70
2023-03-01T04:32:45.613Z,-3271.70
2023-03-01T04:35:12.400Z,-3271.70
2023-03-01T04:37:39.486Z,-3271.60
2023-03-01T04:40:13.869Z,-3271.60
2023-03-01T04:42:40.633Z,-3271.50
2023-03-01T04:45:13.906Z,-3271.40
2023-03-01T04:47:45.362Z,-3271.40
2023-03-01T04:50:17.942Z,-3271.50
2023-03-01T04:52:45.268Z,-3271.50
2023-03-01T04:55:12.312Z,-3271.50
2023-03-01T04:57:39.650Z,-3271.50
2023-03-01T05:00:20.897Z,-3271.60
2023-03-01T05:03:00.218Z,-3271.60
2023-03-01T05:05:32.364Z,-3271.70
2023-03-01T05:08:01.683Z,-3271.60
2023-03-01T05:10:34.446Z,-3271.50
2023-03-01T05:13:01.767Z,-3271.50
2023-03-01T05:15:30.629Z,-3271.50
2023-03-01T05:18:00.213Z,-3271.60
2023-03-01T05:20:29.474Z,-3271.60
2023-03-01T05:23:00.839Z,-3271.70
2023-03-01T05:25:33.542Z,-3271.70
2023-03-01T05:28:06.589Z,-3271.70
2023-03-01T05:30:34.123Z,-3271.70
2023-03-01T05:33:01.740Z,-3271.80
2023-03-01T05:35:30.419Z,-3271.70
2023-03-01T05:37:57.317Z,-3271.60
2023-03-01T05:40:25.352Z,-3271.60
2023-03-01T05:42:57.120Z,-3271.50
2023-03-01T05:45:25.899Z,-3271.60
2023-03-01T05:47:53.464Z,-3271.50
2023-03-01T05:50:26.278Z,-3271.60
2023-03-01T05:53:08.747Z,-3271.50
2023-03-01T05:55:37.063Z,-3271.50
2023-03-01T05:58:06.314Z,-3271.50
2023-03-01T06:00:34.256Z,-3271.50
2023-03-01T06:03:02.965Z,-3271.50
2023-03-01T06:05:30.567Z,-3271.50
2023-03-01T06:08:00.757Z,-3271.40
2023-03-01T06:10:28.220Z,-3271.30
2023-03-01T06:12:55.061Z,-3271.40
2023-03-01T06:15:22.384Z,-3271.50
2023-03-01T06:17:49.578Z,-3271.50
2023-03-01T06:20:20.718Z,-3271.50
2023-03-01T06:22:48.549Z,-3271.50
2023-03-01T06:25:21.517Z,-3271.50
2023-03-01T06:27:49.659Z,-3271.50
2023-03-01T06:30:18.869Z,-3271.60
2023-03-01T06:32:45.647Z,-3271.70
2023-03-01T06:35:15.280Z,-3271.70
2023-03-01T06:37:42.477Z,-3271.80
2023-03-01T06:40:12.424Z,-3271.90
2023-03-01T06:42:41.899Z,-3271.90
2023-03-01T06:45:09.982Z,-3272.00
2023-03-01T06:47:36.923Z,-3272.20
2023-03-01T06:50:04.479Z,-3272.20
2023-03-01T06:52:31.494Z,-3272.30
2023-03-01T06:54:58.248Z,-3272.40
2023-03-01T06:57:25.194Z,-3272.40
2023-03-01T06:59:51.987Z,-3272.50
2023-03-01T07:02:18.984Z,-3272.60
2023-03-01T07:04:45.831Z,-3272.80
2023-03-01T07:07:13.084Z,-3272.90
2023-03-01T07:09:39.846Z,-3273.00
2023-03-01T07:12:06.963Z,-3273.20
2023-03-01T07:14:33.708Z,-3273.30
2023-03-01T07:17:00.516Z,-3273.40
2023-03-01T07:19:27.714Z,-3273.60
2023-03-01T07:21:54.943Z,-3273.70
2023-03-01T07:24:21.666Z,-3273.80
2023-03-01T07:26:52.531Z,-3274.00
2023-03-01T07:29:19.352Z,-3274.10
2023-03-01T07:31:46.730Z,-3274.30
2023-03-01T07:34:13.476Z,-3274.40
2023-03-01T07:36:43.358Z,-3274.50
2023-03-01T07:39:11.525Z,-3274.60
2023-03-01T07:41:38.698Z,-3274.70
2023-03-01T07:44:05.675Z,-3274.80
2023-03-01T07:46:32.864Z,-3275.00
2023-03-01T07:48:59.762Z,-3275.10
2023-03-01T07:51:26.462Z,-3275.30
2023-03-01T07:53:53.189Z,-3275.40
2023-03-01T07:56:20.558Z,-3275.50
2023-03-01T07:58:49.221Z,-3275.70
2023-03-01T08:01:19.677Z,-3275.80
2023-03-01T08:03:47.024Z,-3275.90
2023-03-01T08:06:16.306Z,-3276.10
2023-03-01T08:08:43.126Z,-3276.20
2023-03-01T08:11:12.611Z,-3276.40
2023-03-01T08:13:39.461Z,-3276.50
2023-03-01T08:16:13.771Z,-3276.70
2023-03-01T08:18:40.722Z,-3276.70
2023-03-01T08:21:13.534Z,0.00
2023-03-01T08:23:41.303Z,0.00
2023-03-01T08:26:14.503Z,0.10
2023-03-01T08:28:42.363Z,0.20
2023-03-01T08:31:16.102Z,0.40
2023-03-01T08:33:43.291Z,0.50
2023-03-01T08:36:10.164Z,0.70
2023-03-01T08:38:36.892Z,0.80
2023-03-01T08:41:04.589Z,0.90
2023-03-01T08:43:32.238Z,1.10
2023-03-01T08:45:59.021Z,1.20
2023-03-01T08:48:28.168Z,1.30
2023-03-01T08:50:54.908Z,1.50
2023-03-01T08:53:21.630Z,1.70
2023-03-01T08:55:50.486Z,1.80
2023-03-01T08:58:17.572Z,2.00
2023-03-01T09:00:44.430Z,2.10
2023-03-01T09:03:11.177Z,2.40
2023-03-01T09:05:38.091Z,2.50
2023-03-01T09:08:05.069Z,2.60
2023-03-01T09:10:31.846Z,2.70
2023-03-01T09:12:58.599Z,2.80
2023-03-01T09:15:25.994Z,2.90
2023-03-01T09:17:53.321Z,2.90
2023-03-01T09:20:20.105Z,2.90
2023-03-01T09:22:46.903Z,3.10
2023-03-01T09:25:13.707Z,3.10
2023-03-01T09:27:40.401Z,3.20
2023-03-01T09:30:08.197Z,3.30
2023-03-01T09:32:35.144Z,3.30
2023-03-01T09:35:01.976Z,3.50
2023-03-01T09:37:29.243Z,3.60
2023-03-01T09:39:56.273Z,3.60
2023-03-01T09:42:23.107Z,3.80
2023-03-01T09:44:55.214Z,4.00
2023-03-01T09:47:28.715Z,4.00
2023-03-01T09:50:05.180Z,4.10
2023-03-01T09:52:53.398Z,4.10
2023-03-01T09:55:41.348Z,4.30
2023-03-01T09:58:39.542Z,4.40
2023-03-01T10:01:15.219Z,4.60
2023-03-01T10:04:04.701Z,4.70
2023-03-01T10:06:35.401Z,4.70
2023-03-01T10:09:08.506Z,4.90
2023-03-01T10:11:40.564Z,5.00
2023-03-01T10:14:35.307Z,5.20
2023-03-01T10:17:21.659Z,5.30
2023-03-01T10:19:48.695Z,5.40
2023-03-01T10:22:22.595Z,5.40
2023-03-01T10:24:51.481Z,5.60
2023-03-01T10:27:25.914Z,5.70
2023-03-01T10:30:13.767Z,5.70
2023-03-01T10:32:41.082Z,5.60
2023-03-01T10:35:26.044Z,5.90
2023-03-01T10:38:04.411Z,6.00
2023-03-01T10:40:32.292Z,6.20
2023-03-01T10:43:04.874Z,6.00
2023-03-01T10:45:40.180Z,6.10
2023-03-01T10:48:20.394Z,6.20
2023-03-01T10:50:50.204Z,6.40
2023-03-01T10:53:30.404Z,6.60
2023-03-01T10:56:02.065Z,6.70
2023-03-01T10:58:30.329Z,6.70
2023-03-01T11:01:03.481Z,6.80
2023-03-01T11:03:33.010Z,6.90
2023-03-01T11:06:05.994Z,6.60
2023-03-01T11:08:42.483Z,6.80
2023-03-01T11:11:21.521Z,7.10
2023-03-01T11:13:53.284Z,6.90
2023-03-01T11:16:30.651Z,7.10
2023-03-01T11:19:04.745Z,7.20
2023-03-01T11:21:34.374Z,7.00
2023-03-01T11:24:02.844Z,7.30
2023-03-01T11:26:32.400Z,7.50
2023-03-01T11:29:04.841Z,7.80
2023-03-01T11:31:33.273Z,7.90
2023-03-01T11:34:08.961Z,7.90
2023-03-01T11:36:59.438Z,8.00
2023-03-01T11:40:03.765Z,8.10
2023-03-01T11:42:47.238Z,8.30
2023-03-01T11:45:14.506Z,8.30
2023-03-01T11:47:59.298Z,8.20
2023-03-01T11:50:37.798Z,8.30
2023-03-01T11:53:46.675Z,8.10
2023-03-01T11:56:13.404Z,7.90
2023-03-01T11:58:49.035Z,7.90
2023-03-01T12:01:18.516Z,8.10
2023-03-01T12:03:48.279Z,7.90
2023-03-01T12:06:41.635Z,7.90
2023-03-01T12:09:27.057Z,8.10
2023-03-01T12:12:26.930Z,8.20
2023-03-01T12:15:29.418Z,8.40
2023-03-01T12:18:29.127Z,8.00
2023-03-01T12:21:27.581Z,7.90
2023-03-01T12:24:33.632Z,8.30
2023-03-01T12:27:44.385Z,8.60
2023-03-01T12:30:24.016Z,8.50
2023-03-01T12:33:30.320Z,9.10
2023-03-01T12:36:21.338Z,9.60
2023-03-01T12:38:57.710Z,9.30
2023-03-01T12:41:43.576Z,9.10
2023-03-01T12:44:37.051Z,9.70
2023-03-01T12:47:21.032Z,9.60
2023-03-01T12:49:56.285Z,10.10
2023-03-01T12:52:36.822Z,10.60
2023-03-01T12:55:16.860Z,10.70
2023-03-01T12:58:00.579Z,10.20
2023-03-01T13:00:29.406Z,10.10
2023-03-01T13:03:11.564Z,10.30
2023-03-01T13:05:52.617Z,10.20
2023-03-01T13:08:40.273Z,9.80
2023-03-01T13:11:18.532Z,9.70
2023-03-01T13:13:47.418Z,10.20
2023-03-01T13:16:29.432Z,10.60
2023-03-01T13:19:18.644Z,10.40
2023-03-01T13:21:47.259Z,11.60
2023-03-01T13:24:30.997Z,12.30
2023-03-01T13:27:20.916Z,12.50
2023-03-01T13:29:56.424Z,11.80
2023-03-01T13:32:47.993Z,11.80
2023-03-01T13:35:20.595Z,11.90
2023-03-01T13:37:48.133Z,11.70
2023-03-01T13:40:19.385Z,11.30
2023-03-01T13:42:59.248Z,11.00
2023-03-01T13:45:41.060Z,10.90
2023-03-01T13:48:19.660Z,10.60
2023-03-01T13:51:10.725Z,10.80
2023-03-01T13:53:42.799Z,11.20
2023-03-01T13:56:39.325Z,11.90
2023-03-01T13:59:16.146Z,12.80
2023-03-01T14:01:44.009Z,11.90
2023-03-01T14:04:28.888Z,12.10
2023-03-01T14:07:20.889Z,12.40
2023-03-01T14:10:00.745Z,11.90
2023-03-01T14:12:35.852Z,11.30
2023-03-01T14:15:05.772Z,10.90
2023-03-01T14:17:48.508Z,10.90
2023-03-01T14:20:27.754Z,11.30
2023-03-01T14:23:00.593Z,11.00
2023-03-01T14:25:37.540Z,11.50
2023-03-01T14:28:17.107Z,12.20
2023-03-01T14:30:46.824Z,12.70
2023-03-01T14:33:24.576Z,12.30
2023-03-01T14:36:10.529Z,13.20
2023-03-01T14:38:42.831Z,12.70
2023-03-01T14:41:13.774Z,12.40
2023-03-01T14:43:44.784Z,12.70
2023-03-01T14:46:39.714Z,11.60
2023-03-01T14:49:20.041Z,11.30
2023-03-01T14:51:59.952Z,12.40
2023-03-01T14:54:49.144Z,13.00
2023-03-01T14:57:22.810Z,12.90
2023-03-01T14:59:53.837Z,12.90
2023-03-01T15:02:23.969Z,12.90
2023-03-01T15:04:55.188Z,13.30
2023-03-01T15:07:22.689Z,13.50
2023-03-01T15:09:49.457Z,13.40
2023-03-01T15:12:28.319Z,12.40
2023-03-01T15:15:03.926Z,11.60
2023-03-01T15:17:39.070Z,12.30
2023-03-01T15:20:18.328Z,12.00
2023-03-01T15:22:49.459Z,11.00
2023-03-01T15:25:25.340Z,10.60
2023-03-01T15:27:54.683Z,11.10
2023-03-01T15:30:35.682Z,11.50
2023-03-01T15:33:38.435Z,11.10
2023-03-01T15:36:33.617Z,11.10
2023-03-01T15:39:01.794Z,10.40
2023-03-01T15:41:47.476Z,10.10
2023-03-01T15:44:27.915Z,10.00
2023-03-01T15:46:57.367Z,10.10
2023-03-01T15:49:54.581Z,10.70
2023-03-01T15:52:32.546Z,10.40
2023-03-01T15:55:02.184Z,10.20
2023-03-01T15:57:29.899Z,10.00
2023-03-01T15:59:56.687Z,9.60
2023-03-01T16:02:25.225Z,9.60
2023-03-01T16:04:52.098Z,9.30
2023-03-01T16:07:18.840Z,8.60
2023-03-01T16:09:45.834Z,8.80
2023-03-01T16:12:17.268Z,8.50
2023-03-01T16:14:44.202Z,8.00
2023-03-01T16:17:11.224Z,7.80
2023-03-01T16:19:41.997Z,7.50
2023-03-01T16:22:11.365Z,7.20
2023-03-01T16:24:38.466Z,7.10
2023-03-01T16:27:05.454Z,7.30
2023-03-01T16:29:32.242Z,7.50
2023-03-01T16:32:02.400Z,7.30
2023-03-01T16:34:29.557Z,7.20
2023-03-01T16:36:56.354Z,7.00
2023-03-01T16:39:23.140Z,6.60
2023-03-01T16:41:49.852Z,6.40
2023-03-01T16:44:16.627Z,6.20
2023-03-01T16:46:44.496Z,5.90
2023-03-01T16:49:11.215Z,5.80
2023-03-01T16:51:38.060Z,5.60
2023-03-01T16:54:05.655Z,5.70
2023-03-01T16:56:35.229Z,5.40
2023-03-01T16:59:04.444Z,5.30
2023-03-01T17:01:40.380Z,5.20
2023-03-01T17:04:10.116Z,5.10
2023-03-01T17:06:36.883Z,5.10
2023-03-01T17:09:03.980Z,5.00
2023-03-01T17:11:31.372Z,4.80
2023-03-01T17:13:58.257Z,4.70
2023-03-01T17:16:25.043Z,4.60
2023-03-01T17:18:51.807Z,4.70
2023-03-01T17:21:18.780Z,4.70
2023-03-01T17:23:46.521Z,4.70
2023-03-01T17:26:13.696Z,4.60
2023-03-01T17:28:40.918Z,4.60
2023-03-01T17:31:08.221Z,4.40
2023-03-01T17:33:35.415Z,4.40
2023-03-01T17:36:02.538Z,4.30
2023-03-01T17:38:29.401Z,4.20
2023-03-01T17:40:59.703Z,4.20
2023-03-01T17:43:27.157Z,4.10
2023-03-01T17:45:54.632Z,4.00
2023-03-01T17:48:21.787Z,3.90
2023-03-01T17:50:49.048Z,4.10
2023-03-01T17:53:15.948Z,4.20
2023-03-01T17:55:43.949Z,4.20
2023-03-01T17:58:13.485Z,4.20
2023-03-01T18:00:40.339Z,4.20
2023-03-01T18:03:08.362Z,4.00
2023-03-01T18:05:37.836Z,3.90
2023-03-01T18:08:04.854Z,3.90
2023-03-01T18:10:32.589Z,3.90
2023-03-01T18:12:59.624Z,3.90
2023-03-01T18:15:27.361Z,4.00
2023-03-01T18:17:54.245Z,4.20
2023-03-01T18:20:21.645Z,4.20
2023-03-01T18:22:49.175Z,4.30
2023-03-01T18:25:15.997Z,4.20
2023-03-01T18:27:42.814Z,4.20
2023-03-01T18:30:10.627Z,4.10
2023-03-01T18:32:39.582Z,4.10
2023-03-01T18:35:07.770Z,4.10
2023-03-01T18:37:34.489Z,4.10
2023-03-01T18:40:01.270Z,4.10
2023-03-01T18:42:28.025Z,4.10
2023-03-01T18:44:54.843Z,4.20
2023-03-01T18:47:22.757Z,4.20
2023-03-01T18:49:49.484Z,4.10
2023-03-01T18:52:16.700Z,4.10
2023-03-01T18:54:43.401Z,4.10
2023-03-01T18:57:10.213Z,4.00
2023-03-01T18:59:36.927Z,4.10
2023-03-01T19:02:03.785Z,4.10
2023-03-01T19:04:30.550Z,4.10
2023-03-01T19:06:57.792Z,4.10
2023-03-01T19:09:24.505Z,4.10
2023-03-01T19:11:51.221Z,4.10
2023-03-01T19:14:17.930Z,4.10
2023-03-01T19:16:44.649Z,4.10
2023-03-01T19:19:12.119Z,4.10
2023-03-01T19:21:38.846Z,4.10
2023-03-01T19:24:05.834Z,4.10
2023-03-01T19:26:33.237Z,4.10
2023-03-01T19:29:00.780Z,4.00
2023-03-01T19:31:29.640Z,3.90
2023-03-01T19:34:10.424Z,3.80
2023-03-01T19:36:42.615Z,3.80
2023-03-01T19:39:11.214Z,3.80
2023-03-01T19:41:38.060Z,3.70
2023-03-01T19:44:05.941Z,3.70
2023-03-01T19:46:33.975Z,3.70
2023-03-01T19:49:03.047Z,3.50
2023-03-01T19:51:33.218Z,3.50
2023-03-01T19:53:59.978Z,3.60
2023-03-01T19:56:26.801Z,3.60
2023-03-01T19:59:00.125Z,3.80
2023-03-01T20:01:32.118Z,3.70
2023-03-01T20:03:58.928Z,3.60
2023-03-01T20:06:25.990Z,3.50
2023-03-01T20:08:53.021Z,3.40
2023-03-01T20:11:20.705Z,3.30
2023-03-01T20:13:48.116Z,3.10
2023-03-01T20:16:20.091Z,3.00
2023-03-01T20:18:46.911Z,2.80
2023-03-01T20:21:23.456Z,2.60
2023-03-01T20:23:51.698Z,2.40
2023-03-01T20:26:21.400Z,2.40
2023-03-01T20:28:50.611Z,2.40
2023-03-01T20:31:20.303Z,2.20
2023-03-01T20:33:47.724Z,2.00
2023-03-01T20:36:15.265Z,1.80
2023-03-01T20:38:42.032Z,1.80
2023-03-01T20:41:11.341Z,1.60
2023-03-01T20:43:38.701Z,1.40
2023-03-01T20:46:07.193Z,1.20
2023-03-01T20:48:34.144Z,1.20
2023-03-01T20:51:05.700Z,1.10
2023-03-01T20:53:32.849Z,1.10
2023-03-01T20:56:04.123Z,1.00
2023-03-01T20:58:35.605Z,1.00
2023-03-01T21:01:03.711Z,1.00
2023-03-01T21:03:30.888Z,1.10
2023-03-01T21:05:58.963Z,0.90
2023-03-01T21:08:26.185Z,0.80
2023-03-01T21:10:53.830Z,0.70
2023-03-01T21:13:21.127Z,0.60
2023-03-01T21:15:59.989Z,0.40
2023-03-01T21:18:29.925Z,0.40
2023-03-01T21:21:01.800Z,0.40
2023-03-01T21:23:30.362Z,0.60
2023-03-01T21:26:12.036Z,0.60
2023-03-01T21:28:40.566Z,0.60
2023-03-01T21:31:16.438Z,0.50
2023-03-01T21:33:51.898Z,0.30
2023-03-01T21:36:20.030Z,0.40
2023-03-01T21:38:48.926Z,0.40
2023-03-01T21:41:17.612Z,0.40
2023-03-01T21:43:45.956Z,0.40
2023-03-01T21:46:16.039Z,0.30
2023-03-01T21:48:45.149Z,0.30
2023-03-01T21:51:15.138Z,0.30
2023-03-01T21:53:43.588Z,0.20
2023-03-01T21:56:14.985Z,0.10
2023-03-01T21:58:41.753Z,0.10
2023-03-01T22:01:10.924Z,0.10
2023-03-01T22:03:45.181Z,0.10
2023-03-01T22:06:19.555Z,0.00
2023-03-01T22:08:55.109Z,0.00
2023-03-01T22:11:23.040Z,0.00
2023-03-01T22:13:52.186Z,-3276.70
2023-03-01T22:16:21.127Z,-3276.60
2023-03-01T22:18:48.288Z,-3276.50
2023-03-01T22:21:15.686Z,-3276.60
2023-03-01T22:23:42.792Z,-3276.60
2023-03-01T22:26:49.366Z,-3276.50
2023-03-01T22:29:19.598Z,-3276.40
2023-03-01T22:31:46.434Z,-3276.30
2023-03-01T22:34:14.773Z,-3276.30
2023-03-01T22:36:41.609Z,-3276.30
2023-03-01T22:39:08.722Z,-3276.30
2023-03-01T22:41:38.524Z,-3276.20
2023-03-01T22:44:05.397Z,-3276.10
2023-03-01T22:46:32.476Z,-3276.10
2023-03-01T22:48:59.534Z,-3276.10
2023-03-01T22:51:29.536Z,-3276.10
2023-03-01T22:53:57.394Z,-3276.00
2023-03-01T22:56:28.967Z,-3276.00
2023-03-01T22:58:57.961Z,-3276.10
2023-03-01T23:01:26.101Z,-3276.00
2023-03-01T23:03:53.591Z,-3275.90
2023-03-01T23:06:21.922Z,-3275.80
2023-03-01T23:08:56.968Z,-3275.80
2023-03-01T23:11:25.144Z,-3275.80
2023-03-01T23:13:53.275Z,-3275.90
2023-03-01T23:16:26.010Z,-3275.90
2023-03-01T23:18:59.961Z,-3275.80
2023-03-01T23:21:27.211Z,-3275.70
2023-03-01T23:23:55.388Z,-3275.70
2023-03-01T23:26:22.450Z,-3275.70
2023-03-01T23:28:50.785Z,-3275.70
2023-03-01T23:31:18.243Z,-3275.70
2023-03-01T23:33:46.376Z,-3275.70
2023-03-01T23:36:20.397Z,-3275.70
2023-03-01T23:38:49.335Z,-3275.70
2023-03-01T23:41:25.783Z,-3275.70
2023-03-01T23:43:55.723Z,-3275.70
2023-03-01T23:46:24.737Z,-3275.70
2023-03-01T23:48:51.771Z,-3275.70
2023-03-01T23:51:19.280Z,-3275.70
2023-03-01T23:53:55.229Z,-3275.70
2023-03-01T23:56:27.384Z,-3275.70
2023-03-01T23:58:55.900Z,-3275.60
